createdAt,value
2023-01-26T00:01:15.717Z,79.22
2023-01-26T00:03:42.531Z,78.59
2023-01-26T00:06:11.732Z,79.84
2023-01-26T00:08:43.298Z,78.97
2023-01-26T00:11:12.804Z,78.37
2023-01-26T00:13:39.449Z,77.90
2023-01-26T00:16:09.425Z,78.98
2023-01-26T00:18:37.911Z,79.88
2023-01-26T00:21:05.107Z,78.99
2023-01-26T00:23:32.701Z,78.93
2023-01-26T00:25:59.429Z,78.84
2023-01-26T00:28:25.879Z,78.72
2023-01-26T00:30:52.411Z,78.69
2023-01-26T00:33:18.914Z,78.15
2023-01-26T00:35:54.119Z,79.13
2023-01-26T00:38:20.613Z,78.69
2023-01-26T00:40:47.080Z,79.10
2023-01-26T00:43:13.558Z,78.93
2023-01-26T00:45:40.059Z,77.58
2023-01-26T00:48:07.038Z,78.14
2023-01-26T00:50:33.782Z,78.81
2023-01-26T00:53:00.641Z,79.87
2023-01-26T00:55:32.344Z,77.71
2023-01-26T00:57:59.969Z,78.71
2023-01-26T01:00:26.810Z,80.63
2023-01-26T01:02:53.310Z,78.42
2023-01-26T01:05:19.875Z,77.50
2023-01-26T01:07:46.320Z,79.03
2023-01-26T01:10:12.923Z,79.72
2023-01-26T01:12:39.704Z,80.11
2023-01-26T01:15:06.874Z,79.09
2023-01-26T01:17:34.021Z,76.89
2023-01-26T01:20:00.466Z,77.29
2023-01-26T01:22:26.953Z,76.93
2023-01-26T01:24:53.407Z,77.90
2023-01-26T01:27:19.901Z,77.27
2023-01-26T01:29:46.343Z,76.93
2023-01-26T01:32:12.812Z,77.25
2023-01-26T01:34:39.236Z,77.69
2023-01-26T01:37:05.701Z,77.62
2023-01-26T01:39:32.138Z,78.60
2023-01-26T01:41:58.636Z,78.18
2023-01-26T01:44:26.582Z,77.79
2023-01-26T01:47:03.411Z,77.07
2023-01-26T01:49:42.391Z,76.92
2023-01-26T01:52:41.269Z,77.35
2023-01-26T01:55:12.962Z,78.21
2023-01-26T01:57:53.833Z,77.93
2023-01-26T02:00:23.008Z,76.55
2023-01-26T02:03:13.740Z,78.28
2023-01-26T02:05:55.898Z,77.73
2023-01-26T02:08:30.514Z,78.14
2023-01-26T02:11:00.005Z,77.09
2023-01-26T02:13:27.384Z,77.56
2023-01-26T02:15:54.633Z,77.83
2023-01-26T02:18:21.262Z,78.30
2023-01-26T02:20:53.441Z,77.82
2023-01-26T02:23:22.919Z,77.79
2023-01-26T02:25:49.323Z,77.40
2023-01-26T02:28:17.140Z,77.17
2023-01-26T02:30:43.654Z,78.00
2023-01-26T02:33:39.918Z,77.11
2023-01-26T02:36:08.147Z,77.23
2023-01-26T02:38:41.357Z,77.06
2023-01-26T02:41:10.818Z,79.03
2023-01-26T02:43:37.413Z,78.50
2023-01-26T02:46:04.095Z,78.53
2023-01-26T02:48:49.116Z,77.77
2023-01-26T02:51:15.596Z,77.87
2023-01-26T02:53:42.049Z,78.39
2023-01-26T02:56:08.511Z,78.04
2023-01-26T02:58:35.121Z,79.68
2023-01-26T03:01:01.668Z,78.03
2023-01-26T03:03:45.640Z,79.09
2023-01-26T03:06:12.953Z,78.40
2023-01-26T03:08:40.012Z,78.37
2023-01-26T03:11:07.956Z,78.91
2023-01-26T03:13:35.041Z,78.75
2023-01-26T03:16:06.887Z,78.84
2023-01-26T03:18:53.760Z,78.79
2023-01-26T03:21:38.787Z,77.95
2023-01-26T03:24:24.599Z,78.01
2023-01-26T03:27:09.692Z,76.76
2023-01-26T03:29:36.175Z,78.41
2023-01-26T03:32:02.656Z,79.01
2023-01-26T03:34:29.705Z,80.53
2023-01-26T03:36:56.452Z,78.96
2023-01-26T03:39:41.551Z,78.43
2023-01-26T03:42:26.599Z,79.40
2023-01-26T03:45:11.706Z,78.26
2023-01-26T03:47:56.798Z,78.30
2023-01-26T03:50:41.983Z,78.08
2023-01-26T03:53:38.339Z,77.46
2023-01-26T03:56:41.274Z,76.23
2023-01-26T03:59:08.599Z,77.03
2023-01-26T04:02:04.565Z,76.15
2023-01-26T04:04:49.501Z,76.14
2023-01-26T04:07:34.664Z,76.61
2023-01-26T04:10:01.052Z,77.96
2023-01-26T04:12:27.531Z,77.35
2023-01-26T04:15:12.579Z,78.03
2023-01-26T04:17:57.731Z,76.98
2023-01-26T04:20:42.779Z,76.77
2023-01-26T04:23:17.850Z,77.06
2023-01-26T04:25:44.325Z,75.87
2023-01-26T04:28:10.756Z,76.17
2023-01-26T04:30:37.352Z,77.75
2023-01-26T04:33:03.982Z,77.59
2023-01-26T04:35:30.526Z,77.38
2023-01-26T04:37:57.012Z,77.73
2023-01-26T04:40:23.525Z,77.54
2023-01-26T04:42:50.086Z,77.11
2023-01-26T04:45:16.518Z,78.20
2023-01-26T04:47:42.971Z,76.48
2023-01-26T04:50:10.508Z,77.28
2023-01-26T04:52:37.211Z,76.51
2023-01-26T04:55:03.850Z,76.78
2023-01-26T04:57:30.321Z,76.53
2023-01-26T04:59:56.796Z,76.36
2023-01-26T05:02:23.268Z,76.71
2023-01-26T05:04:49.722Z,76.99
2023-01-26T05:07:16.187Z,76.35
2023-01-26T05:09:42.631Z,76.47
2023-01-26T05:12:27.793Z,76.46
2023-01-26T05:14:54.224Z,75.35
2023-01-26T05:17:20.699Z,75.58
2023-01-26T05:19:47.131Z,77.76
2023-01-26T05:22:13.645Z,76.92
2023-01-26T05:24:40.077Z,76.37
2023-01-26T05:27:21.713Z,76.25
2023-01-26T05:29:49.719Z,76.04
2023-01-26T05:32:16.305Z,76.46
2023-01-26T05:34:43.152Z,76.16
2023-01-26T05:37:09.591Z,75.56
2023-01-26T05:39:36.099Z,76.81
2023-01-26T05:42:02.551Z,76.30
2023-01-26T05:44:29.805Z,75.79
2023-01-26T05:46:56.420Z,76.24
2023-01-26T05:49:22.929Z,77.17
2023-01-26T05:51:49.408Z,76.01
2023-01-26T05:54:15.926Z,76.61
2023-01-26T05:56:42.495Z,75.91
2023-01-26T05:59:09.039Z,76.07
2023-01-26T06:01:35.613Z,75.92
2023-01-26T06:04:02.391Z,76.81
2023-01-26T06:06:28.866Z,76.91
2023-01-26T06:08:55.326Z,78.13
2023-01-26T06:11:21.814Z,76.25
2023-01-26T06:13:48.813Z,75.26
2023-01-26T06:16:16.577Z,76.45
2023-01-26T06:18:43.100Z,75.64
2023-01-26T06:21:09.639Z,76.64
2023-01-26T06:23:36.162Z,77.21
2023-01-26T06:26:02.809Z,77.03
2023-01-26T06:28:30.868Z,76.50
2023-01-26T06:31:01.776Z,75.70
2023-01-26T06:33:28.410Z,76.77
2023-01-26T06:35:55.922Z,75.52
2023-01-26T06:38:22.443Z,77.23
2023-01-26T06:40:48.992Z,76.60
2023-01-26T06:43:15.462Z,76.96
2023-01-26T06:45:42.633Z,77.24
2023-01-26T06:48:09.099Z,77.48
2023-01-26T06:50:35.953Z,76.48
2023-01-26T06:53:04.932Z,76.42
2023-01-26T06:55:36.649Z,75.76
2023-01-26T06:58:03.222Z,75.07
2023-01-26T07:00:29.771Z,74.42
2023-01-26T07:02:56.263Z,75.63
2023-01-26T07:05:22.708Z,75.34
2023-01-26T07:07:49.246Z,76.03
2023-01-26T07:10:15.883Z,75.44
2023-01-26T07:12:44.523Z,75.47
2023-01-26T07:15:12.584Z,76.38
2023-01-26T07:17:39.941Z,76.08
2023-01-26T07:20:07.543Z,76.23
2023-01-26T07:22:34.001Z,76.75
2023-01-26T07:25:00.546Z,75.87
2023-01-26T07:27:26.998Z,76.55
2023-01-26T07:29:53.465Z,76.60
2023-01-26T07:32:19.920Z,76.35
2023-01-26T07:34:46.378Z,76.77
2023-01-26T07:37:12.805Z,76.89
2023-01-26T07:39:39.273Z,75.47
2023-01-26T07:42:05.903Z,76.85
2023-01-26T07:44:32.430Z,75.98
2023-01-26T07:46:59.393Z,76.36
2023-01-26T07:49:25.881Z,75.09
2023-01-26T07:51:54.004Z,75.13
2023-01-26T07:54:21.623Z,76.80
2023-01-26T07:56:52.852Z,76.67
2023-01-26T07:59:19.306Z,76.86
2023-01-26T08:01:46.545Z,76.16
2023-01-26T08:04:13.035Z,77.09
2023-01-26T08:06:39.484Z,75.54
2023-01-26T08:09:06.292Z,76.11
2023-01-26T08:11:32.837Z,76.15
2023-01-26T08:13:59.311Z,75.76
2023-01-26T08:16:25.980Z,75.90
2023-01-26T08:18:52.500Z,75.92
2023-01-26T08:21:19.642Z,76.32
2023-01-26T08:23:50.522Z,74.88
2023-01-26T08:26:20.972Z,75.73
2023-01-26T08:28:48.108Z,76.37
2023-01-26T08:31:19.744Z,75.95
2023-01-26T08:33:48.486Z,76.85
2023-01-26T08:36:15.579Z,75.91
2023-01-26T08:38:42.832Z,76.20
2023-01-26T08:41:09.974Z,76.54
2023-01-26T08:43:36.664Z,75.48
2023-01-26T08:46:03.576Z,76.59
2023-01-26T08:48:31.220Z,76.78
2023-01-26T08:51:00.231Z,76.92
2023-01-26T08:53:27.112Z,76.38
2023-01-26T08:55:53.585Z,76.62
2023-01-26T08:58:20.608Z,76.11
2023-01-26T09:00:47.075Z,76.47
2023-01-26T09:03:13.782Z,76.78
2023-01-26T09:05:40.677Z,76.06
2023-01-26T09:08:08.502Z,74.58
2023-01-26T09:10:37.573Z,76.37
2023-01-26T09:13:04.093Z,76.68
2023-01-26T09:15:30.593Z,76.78
2023-01-26T09:17:59.169Z,77.48
2023-01-26T09:20:27.070Z,75.87
2023-01-26T09:22:54.663Z,75.69
2023-01-26T09:25:21.177Z,76.05
2023-01-26T09:27:47.636Z,77.16
2023-01-26T09:30:14.540Z,79.00
2023-01-26T09:32:41.058Z,79.39
2023-01-26T09:35:14.295Z,78.48
2023-01-26T09:37:43.061Z,77.02
2023-01-26T09:40:19.709Z,76.86
2023-01-26T09:43:16.502Z,79.88
2023-01-26T09:46:27.673Z,77.77
2023-01-26T09:49:11.206Z,76.66
2023-01-26T09:51:40.129Z,75.91
2023-01-26T09:54:22.978Z,77.60
2023-01-26T09:56:49.491Z,78.92
2023-01-26T09:59:32.024Z,80.25
2023-01-26T10:02:23.668Z,79.90
2023-01-26T10:04:53.068Z,78.34
2023-01-26T10:07:19.635Z,78.31
2023-01-26T10:09:49.012Z,77.28
2023-01-26T10:12:28.256Z,79.04
2023-01-26T10:15:10.903Z,80.19
2023-01-26T10:17:40.480Z,78.54
2023-01-26T10:20:36.322Z,81.42
2023-01-26T10:23:10.467Z,79.24
2023-01-26T10:25:41.410Z,79.85
2023-01-26T10:28:35.198Z,81.06
2023-01-26T10:31:04.539Z,81.79
2023-01-26T10:33:36.163Z,82.17
2023-01-26T10:36:06.191Z,82.22
2023-01-26T10:38:32.602Z,78.59
2023-01-26T10:41:18.328Z,78.39
2023-01-26T10:44:02.785Z,78.19
2023-01-26T10:46:38.308Z,81.99
2023-01-26T10:49:19.962Z,80.65
2023-01-26T10:52:06.072Z,79.21
2023-01-26T10:54:35.404Z,79.83
2023-01-26T10:57:14.236Z,81.39
2023-01-26T10:59:46.176Z,80.74
2023-01-26T11:02:12.617Z,80.78
2023-01-26T11:04:39.684Z,81.25
2023-01-26T11:07:39.967Z,82.83
2023-01-26T11:10:27.101Z,82.69
2023-01-26T11:13:16.618Z,82.92
2023-01-26T11:16:14.620Z,81.09
2023-01-26T11:18:58.826Z,82.18
2023-01-26T11:21:47.838Z,81.74
2023-01-26T11:24:58.669Z,81.42
2023-01-26T11:27:41.209Z,80.82
2023-01-26T11:30:38.260Z,81.97
2023-01-26T11:33:07.523Z,80.04
2023-01-26T11:36:04.799Z,79.79
2023-01-26T11:38:42.121Z,82.59
2023-01-26T11:41:24.628Z,83.10
2023-01-26T11:43:58.906Z,84.02
2023-01-26T11:46:45.094Z,81.05
2023-01-26T11:49:26.863Z,79.70
2023-01-26T11:52:08.627Z,78.21
2023-01-26T11:54:57.464Z,81.67
2023-01-26T11:57:49.291Z,79.48
2023-01-26T12:00:30.473Z,81.68
2023-01-26T12:03:05.548Z,81.28
2023-01-26T12:05:42.397Z,85.13
2023-01-26T12:08:17.190Z,84.52
2023-01-26T12:11:21.683Z,83.68
2023-01-26T12:13:57.090Z,84.27
2023-01-26T12:16:36.508Z,82.73
2023-01-26T12:19:12.720Z,82.68
2023-01-26T12:21:46.368Z,82.96
2023-01-26T12:24:46.782Z,80.87
2023-01-26T12:27:14.498Z,81.44
2023-01-26T12:29:50.131Z,83.31
2023-01-26T12:32:16.984Z,82.94
2023-01-26T12:34:43.454Z,84.28
2023-01-26T12:37:20.433Z,83.29
2023-01-26T12:39:52.920Z,83.52
2023-01-26T12:42:26.026Z,81.76
2023-01-26T12:45:02.090Z,84.41
2023-01-26T12:47:44.035Z,83.82
2023-01-26T12:50:36.825Z,81.70
2023-01-26T12:53:20.025Z,80.84
2023-01-26T12:56:01.154Z,80.47
2023-01-26T12:58:31.824Z,79.83
2023-01-26T13:01:05.072Z,80.04
2023-01-26T13:03:35.244Z,80.67
2023-01-26T13:06:18.994Z,79.25
2023-01-26T13:08:57.567Z,78.77
2023-01-26T13:11:52.893Z,82.41
2023-01-26T13:14:39.094Z,84.08
2023-01-26T13:17:14.655Z,82.57
2023-01-26T13:19:44.172Z,82.83
2023-01-26T13:22:23.510Z,81.71
2023-01-26T13:25:00.053Z,80.79
2023-01-26T13:27:31.303Z,81.20
2023-01-26T13:29:57.890Z,83.14
2023-01-26T13:32:24.306Z,82.33
2023-01-26T13:34:58.980Z,82.12
2023-01-26T13:37:42.489Z,82.40
2023-01-26T13:40:33.388Z,80.46
2023-01-26T13:43:25.806Z,80.50
2023-01-26T13:46:03.095Z,83.96
2023-01-26T13:48:37.926Z,82.42
2023-01-26T13:51:04.913Z,82.26
2023-01-26T13:53:38.605Z,82.01
2023-01-26T13:56:06.757Z,81.37
2023-01-26T13:58:34.094Z,81.07
2023-01-26T14:01:05.260Z,80.94
2023-01-26T14:03:32.348Z,80.06
2023-01-26T14:06:09.047Z,81.55
2023-01-26T14:08:36.809Z,82.34
2023-01-26T14:11:05.779Z,78.92
2023-01-26T14:13:38.745Z,82.71
2023-01-26T14:16:06.883Z,82.11
2023-01-26T14:18:33.901Z,82.62
2023-01-26T14:21:04.128Z,83.00
2023-01-26T14:23:35.637Z,81.75
2023-01-26T14:26:07.244Z,81.39
2023-01-26T14:28:36.095Z,82.12
2023-01-26T14:31:23.671Z,82.96
2023-01-26T14:33:54.993Z,81.87
2023-01-26T14:36:21.568Z,81.38
2023-01-26T14:38:50.210Z,83.43
2023-01-26T14:41:20.343Z,81.48
2023-01-26T14:43:49.019Z,81.93
2023-01-26T14:46:18.724Z,82.05
2023-01-26T14:48:52.653Z,80.36
2023-01-26T14:51:24.150Z,79.84
2023-01-26T14:53:52.999Z,79.25
2023-01-26T14:56:20.864Z,80.11
2023-01-26T14:58:51.272Z,79.88
2023-01-26T15:01:22.356Z,77.59
2023-01-26T15:03:51.470Z,78.13
2023-01-26T15:06:20.678Z,78.83
2023-01-26T15:09:01.258Z,79.63
2023-01-26T15:11:51.554Z,81.23
2023-01-26T15:14:38.315Z,78.70
2023-01-26T15:17:05.739Z,79.03
2023-01-26T15:19:39.570Z,79.54
2023-01-26T15:22:24.595Z,79.09
2023-01-26T15:25:17.403Z,78.15
2023-01-26T15:27:49.650Z,77.32
2023-01-26T15:30:17.418Z,77.49
2023-01-26T15:32:44.527Z,76.68
2023-01-26T15:35:27.324Z,78.39
2023-01-26T15:38:13.345Z,77.15
2023-01-26T15:40:39.865Z,77.85
2023-01-26T15:43:27.640Z,78.27
2023-01-26T15:45:58.384Z,77.31
2023-01-26T15:48:25.403Z,76.13
2023-01-26T15:50:51.927Z,75.87
2023-01-26T15:53:21.107Z,75.94
2023-01-26T15:55:58.614Z,76.04
2023-01-26T15:58:25.721Z,75.44
2023-01-26T16:00:53.307Z,76.41
2023-01-26T16:03:22.332Z,78.01
2023-01-26T16:05:49.473Z,79.46
2023-01-26T16:08:16.874Z,79.03
2023-01-26T16:10:44.468Z,80.46
2023-01-26T16:13:12.352Z,80.06
2023-01-26T16:15:44.387Z,80.24
2023-01-26T16:18:11.690Z,80.60
2023-01-26T16:20:43.250Z,79.52
2023-01-26T16:23:20.716Z,79.00
2023-01-26T16:25:47.939Z,80.62
2023-01-26T16:28:14.927Z,80.73
2023-01-26T16:30:46.289Z,81.17
2023-01-26T16:33:15.005Z,79.36
2023-01-26T16:35:41.975Z,79.07
2023-01-26T16:38:14.083Z,79.10
2023-01-26T16:40:41.883Z,77.77
2023-01-26T16:43:24.112Z,78.20
2023-01-26T16:45:51.659Z,78.25
2023-01-26T16:48:18.242Z,79.50
2023-01-26T16:50:44.881Z,77.95
2023-01-26T16:53:22.620Z,78.68
2023-01-26T16:55:49.083Z,79.13
2023-01-26T16:58:15.541Z,78.33
2023-01-26T17:00:42.141Z,77.74
2023-01-26T17:03:11.917Z,77.80
2023-01-26T17:05:38.998Z,77.11
2023-01-26T17:08:05.766Z,76.92
2023-01-26T17:10:33.376Z,76.93
2023-01-26T17:13:00.677Z,76.75
2023-01-26T17:15:29.190Z,77.45
2023-01-26T17:17:57.050Z,77.44
2023-01-26T17:20:23.604Z,77.69
2023-01-26T17:22:50.091Z,79.33
2023-01-26T17:25:18.239Z,78.81
2023-01-26T17:27:46.422Z,79.10
2023-01-26T17:30:13.234Z,78.34
2023-01-26T17:32:41.919Z,77.67
2023-01-26T17:35:08.962Z,77.17
2023-01-26T17:37:35.805Z,78.50
2023-01-26T17:40:02.242Z,78.53
2023-01-26T17:42:30.083Z,79.23
2023-01-26T17:44:57.892Z,79.71
2023-01-26T17:47:24.627Z,79.01
2023-01-26T17:49:51.082Z,77.83
2023-01-26T17:52:18.351Z,81.51
2023-01-26T17:54:44.835Z,80.37
2023-01-26T17:57:11.935Z,79.13
2023-01-26T17:59:38.408Z,79.31
2023-01-26T18:02:04.936Z,81.27
2023-01-26T18:04:33.219Z,80.27
2023-01-26T18:07:01.578Z,81.65
2023-01-26T18:09:28.079Z,80.82
2023-01-26T18:11:54.518Z,81.39
2023-01-26T18:14:21.014Z,81.14
2023-01-26T18:16:48.451Z,80.35
2023-01-26T18:19:15.088Z,81.59
2023-01-26T18:21:41.571Z,83.20
2023-01-26T18:24:08.484Z,85.96
2023-01-26T18:26:36.732Z,84.92
2023-01-26T18:29:05.126Z,84.98
2023-01-26T18:31:33.974Z,84.71
2023-01-26T18:34:01.296Z,84.53
2023-01-26T18:36:28.440Z,83.87
2023-01-26T18:39:00.647Z,84.05
2023-01-26T18:41:30.392Z,81.73
2023-01-26T18:43:58.558Z,82.71
2023-01-26T18:46:27.136Z,82.33
2023-01-26T18:48:54.444Z,80.93
2023-01-26T18:51:22.714Z,85.62
2023-01-26T18:53:49.527Z,85.09
2023-01-26T18:56:17.151Z,84.72
2023-01-26T18:58:43.751Z,83.04
2023-01-26T19:01:15.701Z,84.78
2023-01-26T19:03:47.639Z,83.52
2023-01-26T19:06:19.727Z,82.66
2023-01-26T19:08:47.775Z,83.94
2023-01-26T19:11:15.902Z,84.01
2023-01-26T19:13:43.275Z,83.80
2023-01-26T19:16:11.183Z,84.16
2023-01-26T19:18:37.694Z,84.84
2023-01-26T19:21:04.888Z,83.61
2023-01-26T19:23:31.551Z,83.48
2023-01-26T19:25:58.033Z,83.48
2023-01-26T19:28:24.551Z,82.09
2023-01-26T19:30:52.421Z,83.20
2023-01-26T19:33:27.294Z,84.98
2023-01-26T19:35:57.896Z,83.66
2023-01-26T19:38:24.570Z,85.19
2023-01-26T19:40:53.048Z,85.30
2023-01-26T19:43:23.622Z,84.99
2023-01-26T19:45:55.038Z,84.56
2023-01-26T19:48:23.873Z,85.03
2023-01-26T19:51:03.942Z,86.09
2023-01-26T19:53:33.861Z,83.09
2023-01-26T19:56:08.526Z,83.08
2023-01-26T19:58:35.749Z,83.89
2023-01-26T20:01:05.743Z,82.30
2023-01-26T20:03:32.355Z,83.87
2023-01-26T20:05:58.996Z,82.54
2023-01-26T20:08:26.602Z,82.00
2023-01-26T20:10:53.414Z,81.57
2023-01-26T20:13:20.465Z,82.33
2023-01-26T20:15:46.993Z,82.00
2023-01-26T20:18:13.512Z,80.47
2023-01-26T20:20:39.991Z,81.43
2023-01-26T20:23:07.597Z,83.12
2023-01-26T20:25:36.543Z,82.48
2023-01-26T20:28:03.127Z,80.65
2023-01-26T20:30:29.679Z,82.70
2023-01-26T20:32:56.166Z,80.61
2023-01-26T20:35:22.700Z,80.68
2023-01-26T20:37:49.148Z,80.23
2023-01-26T20:40:15.929Z,81.26
2023-01-26T20:42:42.405Z,81.47
2023-01-26T20:45:09.504Z,80.85
2023-01-26T20:47:38.230Z,79.67
2023-01-26T20:50:05.492Z,78.40
2023-01-26T20:52:31.970Z,79.04
2023-01-26T20:54:58.541Z,78.19
2023-01-26T20:57:25.124Z,78.38
2023-01-26T20:59:51.591Z,79.93
2023-01-26T21:02:22.341Z,81.00
2023-01-26T21:04:48.902Z,79.72
2023-01-26T21:07:16.797Z,79.04
2023-01-26T21:09:43.267Z,78.67
2023-01-26T21:12:10.637Z,77.03
2023-01-26T21:14:37.087Z,78.24
2023-01-26T21:17:03.821Z,80.38
2023-01-26T21:19:30.506Z,80.76
2023-01-26T21:21:59.295Z,80.33
2023-01-26T21:24:27.185Z,80.42
2023-01-26T21:26:54.476Z,78.28
2023-01-26T21:29:21.957Z,77.84
2023-01-26T21:31:49.449Z,79.16
2023-01-26T21:34:16.708Z,78.38
2023-01-26T21:36:43.735Z,79.47
2023-01-26T21:39:13.776Z,79.75
2023-01-26T21:41:55.485Z,79.97
2023-01-26T21:44:24.450Z,77.44
2023-01-26T21:46:53.418Z,78.26
2023-01-26T21:49:20.341Z,80.71
2023-01-26T21:52:05.438Z,80.58
2023-01-26T21:54:32.364Z,78.45
2023-01-26T21:56:59.660Z,79.31
2023-01-26T21:59:26.592Z,78.93
2023-01-26T22:01:55.509Z,79.00
2023-01-26T22:04:24.420Z,77.76
2023-01-26T22:06:52.275Z,76.81
2023-01-26T22:09:19.470Z,76.53
2023-01-26T22:11:45.989Z,76.64
2023-01-26T22:14:24.965Z,78.12
2023-01-26T22:16:51.745Z,77.28
2023-01-26T22:19:18.449Z,76.20
2023-01-26T22:21:45.042Z,77.00
2023-01-26T22:24:13.135Z,76.48
2023-01-26T22:26:40.509Z,76.88
2023-01-26T22:29:07.395Z,76.88
2023-01-26T22:31:34.319Z,75.93
2023-01-26T22:34:02.087Z,76.44
2023-01-26T22:36:29.505Z,77.14
2023-01-26T22:38:56.440Z,77.59
2023-01-26T22:41:28.567Z,76.17
2023-01-26T22:43:57.189Z,75.63
2023-01-26T22:46:26.000Z,77.00
2023-01-26T22:48:56.194Z,76.73
2023-01-26T22:51:27.993Z,76.63
2023-01-26T22:53:55.083Z,76.08
2023-01-26T22:56:21.965Z,76.38
2023-01-26T22:58:58.071Z,77.39
2023-01-26T23:01:28.155Z,74.44
2023-01-26T23:03:55.339Z,76.24
2023-01-26T23:06:22.509Z,77.25
2023-01-26T23:08:49.071Z,77.76
2023-01-26T23:11:20.618Z,76.67
2023-01-26T23:13:48.957Z,77.41
2023-01-26T23:16:15.667Z,77.64
2023-01-26T23:18:42.448Z,75.94
2023-01-26T23:21:09.587Z,78.86
2023-01-26T23:23:36.273Z,78.78
2023-01-26T23:26:03.458Z,77.21
2023-01-26T23:28:32.636Z,77.43
2023-01-26T23:31:00.413Z,77.69
2023-01-26T23:33:29.852Z,77.36
2023-01-26T23:35:56.640Z,80.13
2023-01-26T23:38:24.703Z,78.02
2023-01-26T23:40:51.500Z,78.09
2023-01-26T23:43:18.868Z,77.95
2023-01-26T23:45:46.980Z,77.89
2023-01-26T23:48:13.733Z,79.20
2023-01-26T23:50:40.316Z,80.62
2023-01-26T23:53:07.308Z,79.91
2023-01-26T23:55:34.577Z,80.25
2023-01-26T23:58:01.092Z,80.83
